sensor_id;sensor_type;location;lat;lon;timestamp;P1;durP1;ratioP1;P2;durP2;ratioP2
32705;SDS011;19094;50.972;3.538;2023-05-28T00:00:32;32.13;;;13.32;;
32705;SDS011;19094;50.972;3.538;2023-05-28T00:02:57;32.88;;;13.10;;
32705;SDS011;19094;50.972;3.538;2023-05-28T00:05:24;36.47;;;13.75;;
32705;SDS011;19094;50.972;3.538;2023-05-28T00:07:50;33.70;;;14.80;;
32705;SDS011;19094;50.972;3.538;2023-05-28T00:10:15;35.60;;;13.75;;
32705;SDS011;19094;50.972;3.538;2023-05-28T00:12:41;48.30;;;14.23;;
32705;SDS011;19094;50.972;3.538;2023-05-28T00:15:07;38.28;;;14.02;;
32705;SDS011;19094;50.972;3.538;2023-05-28T00:17:32;36.08;;;13.90;;
32705;SDS011;19094;50.972;3.538;2023-05-28T00:19:58;32.40;;;13.68;;
32705;SDS011;19094;50.972;3.538;2023-05-28T00:22:24;33.13;;;14.02;;
32705;SDS011;19094;50.972;3.538;2023-05-28T00:24:50;43.25;;;14.88;;
32705;SDS011;19094;50.972;3.538;2023-05-28T00:27:15;37.58;;;13.70;;
32705;SDS011;19094;50.972;3.538;2023-05-28T00:29:41;39.97;;;15.10;;
32705;SDS011;19094;50.972;3.538;2023-05-28T00:32:08;39.08;;;14.40;;
32705;SDS011;19094;50.972;3.538;2023-05-28T00:34:34;39.95;;;14.65;;
32705;SDS011;19094;50.972;3.538;2023-05-28T00:37:00;47.55;;;15.10;;
32705;SDS011;19094;50.972;3.538;2023-05-28T00:39:26;41.00;;;14.63;;
32705;SDS011;19094;50.972;3.538;2023-05-28T00:42:04;47.63;;;14.88;;
32705;SDS011;19094;50.972;3.538;2023-05-28T00:44:35;44.42;;;15.43;;
32705;SDS011;19094;50.972;3.538;2023-05-28T00:47:01;37.22;;;15.23;;
32705;SDS011;19094;50.972;3.538;2023-05-28T00:49:27;43.17;;;15.20;;
32705;SDS011;19094;50.972;3.538;2023-05-28T00:51:54;33.50;;;15.07;;
32705;SDS011;19094;50.972;3.538;2023-05-28T00:54:21;36.50;;;15.05;;
32705;SDS011;19094;50.972;3.538;2023-05-28T00:56:48;47.33;;;16.10;;
32705;SDS011;19094;50.972;3.538;2023-05-28T00:59:14;38.67;;;15.18;;
32705;SDS011;19094;50.972;3.538;2023-05-28T01:01:41;46.33;;;16.15;;
32705;SDS011;19094;50.972;3.538;2023-05-28T01:04:07;42.40;;;15.55;;
32705;SDS011;19094;50.972;3.538;2023-05-28T01:06:33;44.17;;;15.98;;
32705;SDS011;19094;50.972;3.538;2023-05-28T01:09:03;52.33;;;16.50;;
32705;SDS011;19094;50.972;3.538;2023-05-28T01:11:29;37.72;;;14.88;;
32705;SDS011;19094;50.972;3.538;2023-05-28T01:13:56;41.72;;;15.18;;
32705;SDS011;19094;50.972;3.538;2023-05-28T01:16:22;35.63;;;15.23;;
32705;SDS011;19094;50.972;3.538;2023-05-28T01:18:48;40.25;;;15.77;;
32705;SDS011;19094;50.972;3.538;2023-05-28T01:21:14;43.97;;;16.10;;
32705;SDS011;19094;50.972;3.538;2023-05-28T01:23:44;54.35;;;17.27;;
32705;SDS011;19094;50.972;3.538;2023-05-28T01:26:11;38.92;;;16.60;;
32705;SDS011;19094;50.972;3.538;2023-05-28T01:28:38;43.67;;;15.80;;
32705;SDS011;19094;50.972;3.538;2023-05-28T01:31:09;43.65;;;15.70;;
32705;SDS011;19094;50.972;3.538;2023-05-28T01:33:36;39.60;;;16.50;;
32705;SDS011;19094;50.972;3.538;2023-05-28T01:36:02;40.72;;;16.00;;
32705;SDS011;19094;50.972;3.538;2023-05-28T01:38:30;40.17;;;16.42;;
32705;SDS011;19094;50.972;3.538;2023-05-28T01:40:58;54.28;;;17.27;;
32705;SDS011;19094;50.972;3.538;2023-05-28T01:43:25;50.03;;;16.83;;
32705;SDS011;19094;50.972;3.538;2023-05-28T01:45:51;41.70;;;15.75;;
32705;SDS011;19094;50.972;3.538;2023-05-28T01:48:17;38.22;;;16.42;;
32705;SDS011;19094;50.972;3.538;2023-05-28T01:50:43;43.10;;;16.10;;
32705;SDS011;19094;50.972;3.538;2023-05-28T01:53:09;45.40;;;15.93;;
32705;SDS011;19094;50.972;3.538;2023-05-28T01:55:35;51.20;;;17.13;;
32705;SDS011;19094;50.972;3.538;2023-05-28T01:58:01;47.75;;;16.23;;
32705;SDS011;19094;50.972;3.538;2023-05-28T02:00:27;41.60;;;16.92;;
32705;SDS011;19094;50.972;3.538;2023-05-28T02:02:53;47.47;;;17.13;;
32705;SDS011;19094;50.972;3.538;2023-05-28T02:05:18;51.28;;;17.00;;
32705;SDS011;19094;50.972;3.538;2023-05-28T02:07:44;50.25;;;17.38;;
32705;SDS011;19094;50.972;3.538;2023-05-28T02:10:11;46.45;;;16.92;;
32705;SDS011;19094;50.972;3.538;2023-05-28T02:12:36;48.88;;;17.38;;
32705;SDS011;19094;50.972;3.538;2023-05-28T02:15:02;48.45;;;18.60;;
32705;SDS011;19094;50.972;3.538;2023-05-28T02:17:28;45.70;;;17.90;;
32705;SDS011;19094;50.972;3.538;2023-05-28T02:19:54;44.95;;;17.95;;
32705;SDS011;19094;50.972;3.538;2023-05-28T02:22:19;46.63;;;17.30;;
32705;SDS011;19094;50.972;3.538;2023-05-28T02:24:45;48.90;;;17.67;;
32705;SDS011;19094;50.972;3.538;2023-05-28T02:27:12;50.05;;;17.88;;
32705;SDS011;19094;50.972;3.538;2023-05-28T02:29:38;45.83;;;18.75;;
32705;SDS011;19094;50.972;3.538;2023-05-28T02:32:04;40.83;;;17.50;;
32705;SDS011;19094;50.972;3.538;2023-05-28T02:34:30;40.45;;;16.95;;
32705;SDS011;19094;50.972;3.538;2023-05-28T02:36:56;48.92;;;17.60;;
32705;SDS011;19094;50.972;3.538;2023-05-28T02:39:22;67.53;;;18.50;;
32705;SDS011;19094;50.972;3.538;2023-05-28T02:41:48;44.67;;;17.90;;
32705;SDS011;19094;50.972;3.538;2023-05-28T02:44:14;47.63;;;18.35;;
32705;SDS011;19094;50.972;3.538;2023-05-28T02:46:40;41.58;;;17.30;;
32705;SDS011;19094;50.972;3.538;2023-05-28T02:49:05;45.30;;;18.20;;
32705;SDS011;19094;50.972;3.538;2023-05-28T02:51:32;39.55;;;17.50;;
32705;SDS011;19094;50.972;3.538;2023-05-28T02:53:57;48.30;;;18.02;;
32705;SDS011;19094;50.972;3.538;2023-05-28T02:56:23;51.42;;;18.65;;
32705;SDS011;19094;50.972;3.538;2023-05-28T02:58:48;46.95;;;18.55;;
32705;SDS011;19094;50.972;3.538;2023-05-28T03:01:14;50.97;;;20.15;;
32705;SDS011;19094;50.972;3.538;2023-05-28T03:03:40;46.78;;;18.42;;
32705;SDS011;19094;50.972;3.538;2023-05-28T03:06:05;51.75;;;18.98;;
32705;SDS011;19094;50.972;3.538;2023-05-28T03:08:32;46.60;;;18.33;;
32705;SDS011;19094;50.972;3.538;2023-05-28T03:10:57;43.95;;;18.15;;
32705;SDS011;19094;50.972;3.538;2023-05-28T03:13:23;58.08;;;19.30;;
32705;SDS011;19094;50.972;3.538;2023-05-28T03:15:49;44.25;;;18.20;;
32705;SDS011;19094;50.972;3.538;2023-05-28T03:18:15;42.88;;;18.45;;
32705;SDS011;19094;50.972;3.538;2023-05-28T03:20:41;43.78;;;18.17;;
32705;SDS011;19094;50.972;3.538;2023-05-28T03:23:06;44.33;;;18.88;;
32705;SDS011;19094;50.972;3.538;2023-05-28T03:25:32;55.80;;;18.95;;
32705;SDS011;19094;50.972;3.538;2023-05-28T03:27:58;46.88;;;18.90;;
32705;SDS011;19094;50.972;3.538;2023-05-28T03:30:24;50.08;;;18.52;;
32705;SDS011;19094;50.972;3.538;2023-05-28T03:32:49;44.15;;;17.75;;
32705;SDS011;19094;50.972;3.538;2023-05-28T03:35:15;42.50;;;16.80;;
32705;SDS011;19094;50.972;3.538;2023-05-28T03:37:41;47.95;;;19.05;;
32705;SDS011;19094;50.972;3.538;2023-05-28T03:40:07;47.25;;;17.05;;
32705;SDS011;19094;50.972;3.538;2023-05-28T03:42:34;40.15;;;17.20;;
32705;SDS011;19094;50.972;3.538;2023-05-28T03:45:00;55.15;;;19.83;;
32705;SDS011;19094;50.972;3.538;2023-05-28T03:47:26;50.20;;;18.95;;
32705;SDS011;19094;50.972;3.538;2023-05-28T03:49:55;48.10;;;19.33;;
32705;SDS011;19094;50.972;3.538;2023-05-28T03:52:21;44.05;;;17.50;;
32705;SDS011;19094;50.972;3.538;2023-05-28T03:54:47;48.50;;;18.80;;
32705;SDS011;19094;50.972;3.538;2023-05-28T03:57:12;48.67;;;18.95;;
32705;SDS011;19094;50.972;3.538;2023-05-28T03:59:38;50.50;;;19.15;;
32705;SDS011;19094;50.972;3.538;2023-05-28T04:02:03;45.67;;;18.52;;
32705;SDS011;19094;50.972;3.538;2023-05-28T04:04:29;51.65;;;19.27;;
32705;SDS011;19094;50.972;3.538;2023-05-28T04:06:55;44.50;;;18.58;;
32705;SDS011;19094;50.972;3.538;2023-05-28T04:09:21;46.58;;;18.95;;
32705;SDS011;19094;50.972;3.538;2023-05-28T04:11:47;48.00;;;18.85;;
32705;SDS011;19094;50.972;3.538;2023-05-28T04:14:12;59.22;;;19.52;;
32705;SDS011;19094;50.972;3.538;2023-05-28T04:16:38;42.97;;;18.42;;
32705;SDS011;19094;50.972;3.538;2023-05-28T04:19:04;48.78;;;19.17;;
32705;SDS011;19094;50.972;3.538;2023-05-28T04:21:31;50.55;;;18.20;;
32705;SDS011;19094;50.972;3.538;2023-05-28T04:23:57;51.72;;;19.00;;
32705;SDS011;19094;50.972;3.538;2023-05-28T04:26:22;55.05;;;19.55;;
32705;SDS011;19094;50.972;3.538;2023-05-28T04:28:51;45.95;;;19.10;;
32705;SDS011;19094;50.972;3.538;2023-05-28T04:31:18;49.00;;;19.05;;
32705;SDS011;19094;50.972;3.538;2023-05-28T04:33:44;49.58;;;18.42;;
32705;SDS011;19094;50.972;3.538;2023-05-28T04:36:12;51.25;;;19.10;;
32705;SDS011;19094;50.972;3.538;2023-05-28T04:38:38;48.80;;;18.65;;
32705;SDS011;19094;50.972;3.538;2023-05-28T04:41:05;54.15;;;20.30;;
32705;SDS011;19094;50.972;3.538;2023-05-28T04:43:30;51.00;;;18.95;;
32705;SDS011;19094;50.972;3.538;2023-05-28T04:45:58;49.10;;;19.02;;
32705;SDS011;19094;50.972;3.538;2023-05-28T04:48:24;50.60;;;19.27;;
32705;SDS011;19094;50.972;3.538;2023-05-28T04:50:51;47.20;;;19.30;;
32705;SDS011;19094;50.972;3.538;2023-05-28T04:53:17;52.35;;;18.83;;
32705;SDS011;19094;50.972;3.538;2023-05-28T04:55:42;49.67;;;20.25;;
32705;SDS011;19094;50.972;3.538;2023-05-28T04:58:09;52.80;;;17.17;;
32705;SDS011;19094;50.972;3.538;2023-05-28T05:00:35;51.80;;;19.20;;
32705;SDS011;19094;50.972;3.538;2023-05-28T05:03:00;53.78;;;19.85;;
32705;SDS011;19094;50.972;3.538;2023-05-28T05:05:27;45.97;;;18.98;;
32705;SDS011;19094;50.972;3.538;2023-05-28T05:07:52;45.42;;;18.40;;
32705;SDS011;19094;50.972;3.538;2023-05-28T05:10:19;42.05;;;17.15;;
32705;SDS011;19094;50.972;3.538;2023-05-28T05:12:44;45.92;;;18.58;;
32705;SDS011;19094;50.972;3.538;2023-05-28T05:15:10;48.53;;;18.70;;
32705;SDS011;19094;50.972;3.538;2023-05-28T05:17:36;51.17;;;18.48;;
32705;SDS011;19094;50.972;3.538;2023-05-28T05:20:02;52.35;;;18.25;;
32705;SDS011;19094;50.972;3.538;2023-05-28T05:22:29;47.63;;;18.98;;
32705;SDS011;19094;50.972;3.538;2023-05-28T05:24:56;51.97;;;18.67;;
32705;SDS011;19094;50.972;3.538;2023-05-28T05:27:22;46.03;;;18.95;;
32705;SDS011;19094;50.972;3.538;2023-05-28T05:29:48;46.70;;;17.73;;
32705;SDS011;19094;50.972;3.538;2023-05-28T05:32:13;46.55;;;18.05;;
32705;SDS011;19094;50.972;3.538;2023-05-28T05:34:39;47.17;;;19.00;;
32705;SDS011;19094;50.972;3.538;2023-05-28T05:37:05;52.55;;;18.08;;
32705;SDS011;19094;50.972;3.538;2023-05-28T05:39:31;43.53;;;18.85;;
32705;SDS011;19094;50.972;3.538;2023-05-28T05:41:57;43.25;;;18.05;;
32705;SDS011;19094;50.972;3.538;2023-05-28T05:44:23;50.65;;;17.58;;
32705;SDS011;19094;50.972;3.538;2023-05-28T05:46:48;38.33;;;17.65;;
32705;SDS011;19094;50.972;3.538;2023-05-28T05:49:14;47.33;;;18.10;;
32705;SDS011;19094;50.972;3.538;2023-05-28T05:51:40;54.20;;;18.23;;
32705;SDS011;19094;50.972;3.538;2023-05-28T05:54:05;57.80;;;18.27;;
32705;SDS011;19094;50.972;3.538;2023-05-28T05:56:31;47.63;;;17.92;;
32705;SDS011;19094;50.972;3.538;2023-05-28T05:58:57;47.95;;;18.23;;
32705;SDS011;19094;50.972;3.538;2023-05-28T06:01:23;49.65;;;17.73;;
32705;SDS011;19094;50.972;3.538;2023-05-28T06:03:50;54.75;;;18.58;;
32705;SDS011;19094;50.972;3.538;2023-05-28T06:06:16;42.08;;;17.60;;
32705;SDS011;19094;50.972;3.538;2023-05-28T06:08:42;46.30;;;18.15;;
32705;SDS011;19094;50.972;3.538;2023-05-28T06:11:07;47.60;;;17.48;;
32705;SDS011;19094;50.972;3.538;2023-05-28T06:13:34;44.80;;;17.15;;
32705;SDS011;19094;50.972;3.538;2023-05-28T06:16:01;46.88;;;18.05;;
32705;SDS011;19094;50.972;3.538;2023-05-28T06:18:30;51.55;;;19.45;;
32705;SDS011;19094;50.972;3.538;2023-05-28T06:20:56;50.50;;;18.58;;
32705;SDS011;19094;50.972;3.538;2023-05-28T06:23:22;50.50;;;19.65;;
32705;SDS011;19094;50.972;3.538;2023-05-28T06:25:48;49.65;;;18.55;;
32705;SDS011;19094;50.972;3.538;2023-05-28T06:28:13;46.55;;;18.20;;
32705;SDS011;19094;50.972;3.538;2023-05-28T06:30:40;53.40;;;17.70;;
32705;SDS011;19094;50.972;3.538;2023-05-28T06:33:05;48.50;;;18.70;;
32705;SDS011;19094;50.972;3.538;2023-05-28T06:35:32;44.55;;;17.95;;
32705;SDS011;19094;50.972;3.538;2023-05-28T06:37:58;54.35;;;19.05;;
32705;SDS011;19094;50.972;3.538;2023-05-28T06:40:24;46.60;;;16.45;;
32705;SDS011;19094;50.972;3.538;2023-05-28T06:42:50;48.22;;;19.08;;
32705;SDS011;19094;50.972;3.538;2023-05-28T06:45:16;40.28;;;16.85;;
32705;SDS011;19094;50.972;3.538;2023-05-28T06:47:42;44.50;;;17.02;;
32705;SDS011;19094;50.972;3.538;2023-05-28T06:50:08;58.38;;;16.75;;
32705;SDS011;19094;50.972;3.538;2023-05-28T06:52:34;49.58;;;19.20;;
32705;SDS011;19094;50.972;3.538;2023-05-28T06:55:00;52.45;;;17.77;;
32705;SDS011;19094;50.972;3.538;2023-05-28T06:57:25;47.10;;;17.45;;
32705;SDS011;19094;50.972;3.538;2023-05-28T06:59:51;50.17;;;18.35;;
32705;SDS011;19094;50.972;3.538;2023-05-28T07:02:16;47.45;;;17.08;;
32705;SDS011;19094;50.972;3.538;2023-05-28T07:04:42;48.35;;;18.35;;
32705;SDS011;19094;50.972;3.538;2023-05-28T07:07:08;45.25;;;17.27;;
32705;SDS011;19094;50.972;3.538;2023-05-28T07:09:33;40.15;;;16.85;;
32705;SDS011;19094;50.972;3.538;2023-05-28T07:12:00;38.70;;;16.20;;
32705;SDS011;19094;50.972;3.538;2023-05-28T07:14:26;43.45;;;14.23;;
32705;SDS011;19094;50.972;3.538;2023-05-28T07:16:52;53.25;;;16.75;;
32705;SDS011;19094;50.972;3.538;2023-05-28T07:19:17;43.53;;;17.15;;
32705;SDS011;19094;50.972;3.538;2023-05-28T07:21:44;47.60;;;17.23;;
32705;SDS011;19094;50.972;3.538;2023-05-28T07:24:11;51.20;;;19.38;;
32705;SDS011;19094;50.972;3.538;2023-05-28T07:26:36;44.80;;;16.35;;
32705;SDS011;19094;50.972;3.538;2023-05-28T07:29:02;46.97;;;17.30;;
32705;SDS011;19094;50.972;3.538;2023-05-28T07:31:28;44.97;;;16.83;;
32705;SDS011;19094;50.972;3.538;2023-05-28T07:33:56;39.58;;;15.43;;
32705;SDS011;19094;50.972;3.538;2023-05-28T07:36:22;46.75;;;17.92;;
32705;SDS011;19094;50.972;3.538;2023-05-28T07:38:47;50.47;;;17.90;;
32705;SDS011;19094;50.972;3.538;2023-05-28T07:41:13;49.05;;;17.33;;
32705;SDS011;19094;50.972;3.538;2023-05-28T07:43:39;49.03;;;17.05;;
32705;SDS011;19094;50.972;3.538;2023-05-28T07:46:05;40.60;;;15.38;;
32705;SDS011;19094;50.972;3.538;2023-05-28T07:48:30;36.42;;;15.38;;
32705;SDS011;19094;50.972;3.538;2023-05-28T07:50:56;41.63;;;14.70;;
32705;SDS011;19094;50.972;3.538;2023-05-28T07:53:22;37.42;;;15.57;;
32705;SDS011;19094;50.972;3.538;2023-05-28T07:55:48;36.35;;;14.40;;
32705;SDS011;19094;50.972;3.538;2023-05-28T07:58:14;37.72;;;13.25;;
32705;SDS011;19094;50.972;3.538;2023-05-28T08:00:39;42.10;;;14.57;;
32705;SDS011;19094;50.972;3.538;2023-05-28T08:03:05;36.75;;;13.98;;
32705;SDS011;19094;50.972;3.538;2023-05-28T08:05:31;39.50;;;14.32;;
32705;SDS011;19094;50.972;3.538;2023-05-28T08:07:58;33.38;;;11.52;;
32705;SDS011;19094;50.972;3.538;2023-05-28T08:10:24;44.08;;;13.48;;
32705;SDS011;19094;50.972;3.538;2023-05-28T08:12:50;40.55;;;13.32;;
32705;SDS011;19094;50.972;3.538;2023-05-28T08:15:15;33.63;;;13.00;;
32705;SDS011;19094;50.972;3.538;2023-05-28T08:17:41;30.25;;;11.00;;
32705;SDS011;19094;50.972;3.538;2023-05-28T08:20:07;37.17;;;10.75;;
32705;SDS011;19094;50.972;3.538;2023-05-28T08:22:36;34.00;;;9.90;;
32705;SDS011;19094;50.972;3.538;2023-05-28T08:25:02;24.77;;;7.38;;
32705;SDS011;19094;50.972;3.538;2023-05-28T08:27:28;25.67;;;8.57;;
32705;SDS011;19094;50.972;3.538;2023-05-28T08:29:55;22.35;;;7.68;;
32705;SDS011;19094;50.972;3.538;2023-05-28T08:32:21;32.78;;;8.60;;
32705;SDS011;19094;50.972;3.538;2023-05-28T08:34:46;26.33;;;7.78;;
32705;SDS011;19094;50.972;3.538;2023-05-28T08:37:12;33.90;;;6.97;;
32705;SDS011;19094;50.972;3.538;2023-05-28T08:39:38;21.30;;;6.93;;
32705;SDS011;19094;50.972;3.538;2023-05-28T08:42:04;20.20;;;6.35;;
32705;SDS011;19094;50.972;3.538;2023-05-28T08:44:30;18.60;;;6.40;;
32705;SDS011;19094;50.972;3.538;2023-05-28T08:46:56;19.83;;;6.38;;
32705;SDS011;19094;50.972;3.538;2023-05-28T08:49:24;20.80;;;6.47;;
32705;SDS011;19094;50.972;3.538;2023-05-28T08:51:57;22.00;;;6.43;;
32705;SDS011;19094;50.972;3.538;2023-05-28T08:54:27;14.18;;;4.88;;
32705;SDS011;19094;50.972;3.538;2023-05-28T08:56:55;19.25;;;6.90;;
32705;SDS011;19094;50.972;3.538;2023-05-28T08:59:21;17.33;;;6.25;;
32705;SDS011;19094;50.972;3.538;2023-05-28T09:01:48;17.75;;;5.05;;
32705;SDS011;19094;50.972;3.538;2023-05-28T09:04:15;16.58;;;5.30;;
32705;SDS011;19094;50.972;3.538;2023-05-28T09:06:41;13.48;;;5.35;;
32705;SDS011;19094;50.972;3.538;2023-05-28T09:09:06;14.00;;;4.90;;
32705;SDS011;19094;50.972;3.538;2023-05-28T09:11:36;19.02;;;5.45;;
32705;SDS011;19094;50.972;3.538;2023-05-28T09:14:09;15.90;;;4.95;;
32705;SDS011;19094;50.972;3.538;2023-05-28T09:16:39;16.88;;;4.80;;
32705;SDS011;19094;50.972;3.538;2023-05-28T09:19:08;22.35;;;6.13;;
32705;SDS011;19094;50.972;3.538;2023-05-28T09:21:34;16.58;;;5.15;;
32705;SDS011;19094;50.972;3.538;2023-05-28T09:24:01;20.50;;;6.43;;
32705;SDS011;19094;50.972;3.538;2023-05-28T09:26:29;17.08;;;5.53;;
32705;SDS011;19094;50.972;3.538;2023-05-28T09:28:56;22.85;;;6.78;;
32705;SDS011;19094;50.972;3.538;2023-05-28T09:31:27;16.88;;;6.65;;
32705;SDS011;19094;50.972;3.538;2023-05-28T09:33:54;16.83;;;5.30;;
32705;SDS011;19094;50.972;3.538;2023-05-28T09:36:20;18.42;;;6.43;;
32705;SDS011;19094;50.972;3.538;2023-05-28T09:38:46;26.05;;;6.90;;
32705;SDS011;19094;50.972;3.538;2023-05-28T09:41:19;15.30;;;5.88;;
32705;SDS011;19094;50.972;3.538;2023-05-28T09:43:46;21.10;;;5.53;;
32705;SDS011;19094;50.972;3.538;2023-05-28T09:46:19;23.05;;;5.72;;
32705;SDS011;19094;50.972;3.538;2023-05-28T09:48:45;19.23;;;6.15;;
32705;SDS011;19094;50.972;3.538;2023-05-28T09:51:11;15.57;;;5.68;;
32705;SDS011;19094;50.972;3.538;2023-05-28T09:53:39;12.27;;;4.50;;
32705;SDS011;19094;50.972;3.538;2023-05-28T09:56:09;15.43;;;4.78;;
32705;SDS011;19094;50.972;3.538;2023-05-28T09:58:37;14.27;;;5.32;;
32705;SDS011;19094;50.972;3.538;2023-05-28T10:01:08;16.02;;;5.60;;
32705;SDS011;19094;50.972;3.538;2023-05-28T10:03:42;13.20;;;5.00;;
32705;SDS011;19094;50.972;3.538;2023-05-28T10:06:10;14.73;;;4.95;;
32705;SDS011;19094;50.972;3.538;2023-05-28T10:08:39;22.58;;;6.63;;
32705;SDS011;19094;50.972;3.538;2023-05-28T10:11:10;16.35;;;5.80;;
32705;SDS011;19094;50.972;3.538;2023-05-28T10:13:40;20.75;;;5.03;;
32705;SDS011;19094;50.972;3.538;2023-05-28T10:16:07;17.02;;;6.75;;
32705;SDS011;19094;50.972;3.538;2023-05-28T10:18:34;18.42;;;5.10;;
32705;SDS011;19094;50.972;3.538;2023-05-28T10:21:00;20.85;;;6.18;;
32705;SDS011;19094;50.972;3.538;2023-05-28T10:23:26;26.20;;;7.60;;
32705;SDS011;19094;50.972;3.538;2023-05-28T10:25:53;18.98;;;5.97;;
32705;SDS011;19094;50.972;3.538;2023-05-28T10:28:20;20.27;;;6.35;;
32705;SDS011;19094;50.972;3.538;2023-05-28T10:30:46;16.67;;;4.80;;
32705;SDS011;19094;50.972;3.538;2023-05-28T10:33:39;12.35;;;5.00;;
32705;SDS011;19094;50.972;3.538;2023-05-28T10:36:10;15.98;;;6.22;;
32705;SDS011;19094;50.972;3.538;2023-05-28T10:41:18;14.38;;;5.97;;
32705;SDS011;19094;50.972;3.538;2023-05-28T10:43:49;18.17;;;5.85;;
32705;SDS011;19094;50.972;3.538;2023-05-28T10:57:18;17.33;;;6.13;;
32705;SDS011;19094;50.972;3.538;2023-05-28T10:59:49;20.20;;;7.50;;
32705;SDS011;19094;50.972;3.538;2023-05-28T11:02:24;21.85;;;7.03;;
32705;SDS011;19094;50.972;3.538;2023-05-28T11:04:54;18.20;;;6.38;;
32705;SDS011;19094;50.972;3.538;2023-05-28T11:07:22;11.43;;;5.07;;
32705;SDS011;19094;50.972;3.538;2023-05-28T11:09:55;17.10;;;6.15;;
32705;SDS011;19094;50.972;3.538;2023-05-28T11:12:24;20.58;;;7.63;;
32705;SDS011;19094;50.972;3.538;2023-05-28T11:14:51;13.82;;;4.55;;
32705;SDS011;19094;50.972;3.538;2023-05-28T11:17:17;16.98;;;6.88;;
32705;SDS011;19094;50.972;3.538;2023-05-28T11:19:45;15.02;;;5.93;;
32705;SDS011;19094;50.972;3.538;2023-05-28T11:22:12;20.17;;;6.55;;
32705;SDS011;19094;50.972;3.538;2023-05-28T11:24:51;22.13;;;6.28;;
32705;SDS011;19094;50.972;3.538;2023-05-28T11:27:28;15.50;;;6.25;;
32705;SDS011;19094;50.972;3.538;2023-05-28T11:29:58;21.75;;;6.85;;
32705;SDS011;19094;50.972;3.538;2023-05-28T11:32:25;22.63;;;7.47;;
32705;SDS011;19094;50.972;3.538;2023-05-28T11:34:53;17.20;;;6.55;;
32705;SDS011;19094;50.972;3.538;2023-05-28T11:37:24;16.55;;;7.38;;
32705;SDS011;19094;50.972;3.538;2023-05-28T11:39:57;20.05;;;6.63;;
32705;SDS011;19094;50.972;3.538;2023-05-28T11:42:24;12.10;;;5.20;;
32705;SDS011;19094;50.972;3.538;2023-05-28T11:44:51;18.20;;;5.75;;
32705;SDS011;19094;50.972;3.538;2023-05-28T11:47:17;20.70;;;6.35;;
32705;SDS011;19094;50.972;3.538;2023-05-28T11:49:44;19.42;;;6.80;;
32705;SDS011;19094;50.972;3.538;2023-05-28T11:52:19;17.75;;;6.60;;
32705;SDS011;19094;50.972;3.538;2023-05-28T11:54:46;20.95;;;7.03;;
32705;SDS011;19094;50.972;3.538;2023-05-28T11:57:20;18.75;;;6.57;;
32705;SDS011;19094;50.972;3.538;2023-05-28T11:59:55;18.75;;;6.75;;
32705;SDS011;19094;50.972;3.538;2023-05-28T12:02:24;20.40;;;5.75;;
32705;SDS011;19094;50.972;3.538;2023-05-28T12:04:56;21.85;;;7.63;;
32705;SDS011;19094;50.972;3.538;2023-05-28T12:07:32;22.53;;;6.33;;
32705;SDS011;19094;50.972;3.538;2023-05-28T12:10:10;18.50;;;6.40;;
32705;SDS011;19094;50.972;3.538;2023-05-28T12:12:41;13.32;;;6.05;;
32705;SDS011;19094;50.972;3.538;2023-05-28T12:15:11;19.70;;;6.25;;
32705;SDS011;19094;50.972;3.538;2023-05-28T12:17:38;18.27;;;5.90;;
32705;SDS011;19094;50.972;3.538;2023-05-28T12:22:42;16.38;;;6.07;;
32705;SDS011;19094;50.972;3.538;2023-05-28T12:25:08;22.35;;;6.07;;
32705;SDS011;19094;50.972;3.538;2023-05-28T12:27:35;19.38;;;6.05;;
32705;SDS011;19094;50.972;3.538;2023-05-28T12:30:02;22.75;;;6.13;;
32705;SDS011;19094;50.972;3.538;2023-05-28T12:32:31;22.65;;;7.28;;
32705;SDS011;19094;50.972;3.538;2023-05-28T12:34:59;27.00;;;6.85;;
32705;SDS011;19094;50.972;3.538;2023-05-28T12:37:25;23.80;;;7.10;;
32705;SDS011;19094;50.972;3.538;2023-05-28T12:39:52;17.67;;;6.40;;
32705;SDS011;19094;50.972;3.538;2023-05-28T12:42:18;23.10;;;7.85;;
32705;SDS011;19094;50.972;3.538;2023-05-28T12:44:44;20.17;;;6.97;;
32705;SDS011;19094;50.972;3.538;2023-05-28T12:47:09;15.77;;;5.80;;
32705;SDS011;19094;50.972;3.538;2023-05-28T12:49:35;20.25;;;5.65;;
32705;SDS011;19094;50.972;3.538;2023-05-28T12:52:01;13.98;;;5.72;;
32705;SDS011;19094;50.972;3.538;2023-05-28T12:54:27;15.57;;;5.05;;
32705;SDS011;19094;50.972;3.538;2023-05-28T12:56:52;15.10;;;5.70;;
32705;SDS011;19094;50.972;3.538;2023-05-28T12:59:22;16.02;;;5.32;;
32705;SDS011;19094;50.972;3.538;2023-05-28T13:01:48;14.07;;;5.07;;
32705;SDS011;19094;50.972;3.538;2023-05-28T13:04:14;21.85;;;5.78;;
32705;SDS011;19094;50.972;3.538;2023-05-28T13:06:41;14.02;;;5.10;;
32705;SDS011;19094;50.972;3.538;2023-05-28T13:09:07;13.55;;;5.13;;
32705;SDS011;19094;50.972;3.538;2023-05-28T13:11:34;15.20;;;4.78;;
32705;SDS011;19094;50.972;3.538;2023-05-28T13:14:01;18.08;;;4.75;;
32705;SDS011;19094;50.972;3.538;2023-05-28T13:16:27;15.40;;;5.32;;
32705;SDS011;19094;50.972;3.538;2023-05-28T13:18:52;19.65;;;5.35;;
32705;SDS011;19094;50.972;3.538;2023-05-28T13:21:18;15.52;;;5.30;;
32705;SDS011;19094;50.972;3.538;2023-05-28T13:23:44;20.77;;;5.38;;
32705;SDS011;19094;50.972;3.538;2023-05-28T13:26:09;20.13;;;4.93;;
32705;SDS011;19094;50.972;3.538;2023-05-28T13:28:35;20.58;;;5.15;;
32705;SDS011;19094;50.972;3.538;2023-05-28T13:31:01;11.40;;;4.70;;
32705;SDS011;19094;50.972;3.538;2023-05-28T13:33:26;16.17;;;4.95;;
32705;SDS011;19094;50.972;3.538;2023-05-28T13:35:52;12.93;;;5.10;;
32705;SDS011;19094;50.972;3.538;2023-05-28T13:38:18;13.38;;;4.80;;
32705;SDS011;19094;50.972;3.538;2023-05-28T13:40:44;19.73;;;5.93;;
32705;SDS011;19094;50.972;3.538;2023-05-28T13:43:10;13.65;;;4.97;;
32705;SDS011;19094;50.972;3.538;2023-05-28T13:45:36;17.70;;;6.30;;
32705;SDS011;19094;50.972;3.538;2023-05-28T13:48:01;15.85;;;5.43;;
32705;SDS011;19094;50.972;3.538;2023-05-28T13:50:27;16.92;;;5.93;;
32705;SDS011;19094;50.972;3.538;2023-05-28T13:52:53;22.58;;;5.20;;
32705;SDS011;19094;50.972;3.538;2023-05-28T13:55:21;16.15;;;4.80;;
32705;SDS011;19094;50.972;3.538;2023-05-28T13:57:46;17.15;;;6.05;;
32705;SDS011;19094;50.972;3.538;2023-05-28T14:00:12;27.08;;;5.88;;
32705;SDS011;19094;50.972;3.538;2023-05-28T14:02:38;14.93;;;5.30;;
32705;SDS011;19094;50.972;3.538;2023-05-28T14:05:04;14.43;;;6.13;;
32705;SDS011;19094;50.972;3.538;2023-05-28T14:07:31;17.50;;;6.25;;
32705;SDS011;19094;50.972;3.538;2023-05-28T14:09:56;12.45;;;5.30;;
32705;SDS011;19094;50.972;3.538;2023-05-28T14:12:22;16.98;;;6.10;;
32705;SDS011;19094;50.972;3.538;2023-05-28T14:14:47;19.48;;;6.53;;
32705;SDS011;19094;50.972;3.538;2023-05-28T14:17:13;16.88;;;5.20;;
32705;SDS011;19094;50.972;3.538;2023-05-28T14:19:39;15.40;;;6.30;;
32705;SDS011;19094;50.972;3.538;2023-05-28T14:22:05;19.42;;;6.10;;
32705;SDS011;19094;50.972;3.538;2023-05-28T14:24:31;14.45;;;5.60;;
32705;SDS011;19094;50.972;3.538;2023-05-28T14:26:56;21.42;;;7.20;;
32705;SDS011;19094;50.972;3.538;2023-05-28T14:29:22;15.57;;;5.50;;
32705;SDS011;19094;50.972;3.538;2023-05-28T14:31:48;20.50;;;5.60;;
32705;SDS011;19094;50.972;3.538;2023-05-28T14:34:13;22.13;;;6.20;;
32705;SDS011;19094;50.972;3.538;2023-05-28T14:36:39;15.05;;;6.30;;
32705;SDS011;19094;50.972;3.538;2023-05-28T14:39:05;18.52;;;5.90;;